createdAt,value
2022-12-19T00:00:39.942Z,21.20
2022-12-19T00:01:40.113Z,21.80
2022-12-19T00:02:40.046Z,20.40
2022-12-19T00:03:39.992Z,20.70
2022-12-19T00:04:39.905Z,18.80
2022-12-19T00:05:39.889Z,18.60
2022-12-19T00:06:43.444Z,20.20
2022-12-19T00:07:39.861Z,19.60
2022-12-19T00:08:39.853Z,17.00
2022-12-19T00:09:39.848Z,19.00
2022-12-19T00:10:39.834Z,18.30
2022-12-19T00:11:39.839Z,18.00
2022-12-19T00:12:39.815Z,18.30
2022-12-19T00:13:41.290Z,18.50
2022-12-19T00:14:39.791Z,17.40
2022-12-19T00:15:39.784Z,21.20
2022-12-19T00:16:39.842Z,18.20
2022-12-19T00:17:39.755Z,17.80
2022-12-19T00:18:39.752Z,20.30
2022-12-19T00:19:39.731Z,19.20
2022-12-19T00:20:39.728Z,19.90
2022-12-19T00:21:39.726Z,18.70
2022-12-19T00:22:39.702Z,17.20
2022-12-19T00:23:39.686Z,18.20
2022-12-19T00:24:39.678Z,18.70
2022-12-19T00:25:39.683Z,17.60
2022-12-19T00:26:39.679Z,16.40
2022-12-19T00:27:39.647Z,18.80
2022-12-19T00:28:39.633Z,16.60
2022-12-19T00:29:39.629Z,18.60
2022-12-19T00:30:39.617Z,16.50
2022-12-19T00:31:39.661Z,18.50
2022-12-19T00:32:39.596Z,17.60
2022-12-19T00:33:43.448Z,19.90
2022-12-19T00:34:39.577Z,18.30
2022-12-19T00:35:39.552Z,19.00
2022-12-19T00:36:39.561Z,17.80
2022-12-19T00:37:40.654Z,17.10
2022-12-19T00:38:39.536Z,18.30
2022-12-19T00:39:39.518Z,17.80
2022-12-19T00:40:39.512Z,17.00
2022-12-19T00:41:41.558Z,18.20
2022-12-19T00:42:39.490Z,16.20
2022-12-19T00:43:39.489Z,19.40
2022-12-19T00:44:39.471Z,19.10
2022-12-19T00:45:39.492Z,18.20
2022-12-19T00:46:39.455Z,18.10
2022-12-19T00:47:39.432Z,16.90
2022-12-19T00:48:39.418Z,16.10
2022-12-19T00:49:39.419Z,19.60
2022-12-19T00:50:39.403Z,16.70
2022-12-19T00:51:39.402Z,15.70
2022-12-19T00:52:39.383Z,16.80
2022-12-19T00:53:39.366Z,17.00
2022-12-19T00:54:39.399Z,19.00
2022-12-19T00:55:39.348Z,18.20
2022-12-19T00:56:39.353Z,20.00
2022-12-19T00:57:39.325Z,17.70
2022-12-19T00:58:44.920Z,17.90
2022-12-19T00:59:39.304Z,17.20
2022-12-19T01:00:39.340Z,18.80
2022-12-19T01:01:39.658Z,20.60
2022-12-19T01:02:39.458Z,19.10
2022-12-19T01:03:39.256Z,18.00
2022-12-19T01:04:41.688Z,17.30
2022-12-19T01:05:40.808Z,15.30
2022-12-19T01:06:39.234Z,17.90
2022-12-19T01:07:39.215Z,18.60
2022-12-19T01:08:39.206Z,16.10
2022-12-19T01:09:39.192Z,17.40
2022-12-19T01:10:39.189Z,16.30
2022-12-19T01:11:39.190Z,16.20
2022-12-19T01:12:39.165Z,17.30
2022-12-19T01:13:39.148Z,17.50
2022-12-19T01:14:39.143Z,17.30
2022-12-19T01:15:39.128Z,16.00
2022-12-19T01:16:39.172Z,15.50
2022-12-19T01:17:44.240Z,18.10
2022-12-19T01:18:39.106Z,18.80
2022-12-19T01:19:44.037Z,18.60
2022-12-19T01:20:39.083Z,19.00
2022-12-19T01:21:39.077Z,15.80
2022-12-19T01:22:39.050Z,16.10
2022-12-19T01:23:39.046Z,18.80
2022-12-19T01:24:39.033Z,16.40
2022-12-19T01:25:39.154Z,17.10
2022-12-19T01:26:39.027Z,19.60
2022-12-19T01:27:39.001Z,16.50
2022-12-19T01:28:38.987Z,17.50
2022-12-19T01:29:50.089Z,16.20
2022-12-19T01:30:38.976Z,16.00
2022-12-19T01:31:39.083Z,19.50
2022-12-19T01:32:38.945Z,17.80
2022-12-19T01:33:38.936Z,17.20
2022-12-19T01:34:38.925Z,17.80
2022-12-19T01:35:38.923Z,17.30
2022-12-19T01:36:39.965Z,18.30
2022-12-19T01:37:39.647Z,16.80
2022-12-19T01:38:38.876Z,17.30
2022-12-19T01:39:38.871Z,17.30
2022-12-19T01:40:38.867Z,17.40
2022-12-19T01:41:38.863Z,17.90
2022-12-19T01:42:38.836Z,19.20
2022-12-19T01:43:38.824Z,17.30
2022-12-19T01:44:38.815Z,17.80
2022-12-19T01:45:45.325Z,19.30
2022-12-19T01:46:38.840Z,19.60
2022-12-19T01:47:39.658Z,23.60
2022-12-19T01:48:38.769Z,23.20
2022-12-19T01:49:38.767Z,20.10
2022-12-19T01:50:38.752Z,20.20
2022-12-19T01:51:38.752Z,18.90
2022-12-19T01:52:38.732Z,18.90
2022-12-19T01:53:48.298Z,17.30
2022-12-19T01:54:38.715Z,16.70
2022-12-19T01:55:38.692Z,18.70
2022-12-19T01:56:38.674Z,17.60
2022-12-19T01:57:39.504Z,18.90
2022-12-19T01:58:38.628Z,18.80
2022-12-19T01:59:38.618Z,19.00
2022-12-19T02:00:38.609Z,19.10
2022-12-19T02:01:46.714Z,18.80
2022-12-19T02:02:38.666Z,17.80
2022-12-19T02:03:38.581Z,18.60
2022-12-19T02:04:38.565Z,16.20
2022-12-19T02:05:38.561Z,18.40
2022-12-19T02:06:38.577Z,21.10
2022-12-19T02:07:38.542Z,18.60
2022-12-19T02:08:38.527Z,21.20
2022-12-19T02:09:38.522Z,19.40
2022-12-19T02:10:38.508Z,20.80
2022-12-19T02:11:38.513Z,16.30
2022-12-19T02:12:38.487Z,20.30
2022-12-19T02:13:38.477Z,18.40
2022-12-19T02:14:38.459Z,19.40
2022-12-19T02:15:38.455Z,20.10
2022-12-19T02:16:38.486Z,19.70
2022-12-19T02:17:38.439Z,19.20
2022-12-19T02:18:38.427Z,17.40
2022-12-19T02:19:38.416Z,23.20
2022-12-19T02:20:38.407Z,19.60
2022-12-19T02:21:38.415Z,19.30
2022-12-19T02:22:38.382Z,19.90
2022-12-19T02:23:38.367Z,21.40
2022-12-19T02:24:38.365Z,21.40
2022-12-19T02:25:38.347Z,22.50
2022-12-19T02:26:38.348Z,20.10
2022-12-19T02:27:40.388Z,20.40
2022-12-19T02:28:38.314Z,21.30
2022-12-19T02:29:38.301Z,19.40
2022-12-19T02:30:38.307Z,20.70
2022-12-19T02:31:38.337Z,21.70
2022-12-19T02:32:38.279Z,23.10
2022-12-19T02:33:38.262Z,21.20
2022-12-19T02:34:42.805Z,20.80
2022-12-19T02:35:38.262Z,21.40
2022-12-19T02:36:38.674Z,20.30
2022-12-19T02:37:38.246Z,20.30
2022-12-19T02:38:38.217Z,20.80
2022-12-19T02:39:38.206Z,21.00
2022-12-19T02:40:38.203Z,21.40
2022-12-19T02:41:38.183Z,23.60
2022-12-19T02:42:38.201Z,20.60
2022-12-19T02:43:38.159Z,22.60
2022-12-19T02:44:38.150Z,23.50
2022-12-19T02:45:38.183Z,21.50
2022-12-19T02:46:38.131Z,23.80
2022-12-19T02:47:38.141Z,21.30
2022-12-19T02:48:38.106Z,24.90
2022-12-19T02:49:38.095Z,22.20
2022-12-19T02:50:38.087Z,22.10
2022-12-19T02:51:38.072Z,23.40
2022-12-19T02:52:38.087Z,20.70
2022-12-19T02:53:38.064Z,23.00
2022-12-19T02:54:38.056Z,23.60
2022-12-19T02:55:38.041Z,21.10
2022-12-19T02:56:38.034Z,21.10
2022-12-19T02:57:38.030Z,21.90
2022-12-19T02:58:38.010Z,21.20
2022-12-19T02:59:37.986Z,23.70
2022-12-19T03:00:37.982Z,23.30
2022-12-19T03:01:38.138Z,21.60
2022-12-19T03:02:38.088Z,23.10
2022-12-19T03:03:38.069Z,21.80
2022-12-19T03:04:37.953Z,21.80
2022-12-19T03:05:37.946Z,21.70
2022-12-19T03:06:37.923Z,22.20
2022-12-19T03:07:37.931Z,22.30
2022-12-19T03:08:37.910Z,23.20
2022-12-19T03:09:37.889Z,22.10
2022-12-19T03:10:37.882Z,22.00
2022-12-19T03:11:37.872Z,20.90
2022-12-19T03:12:37.876Z,21.10
2022-12-19T03:13:37.852Z,22.80
2022-12-19T03:14:37.849Z,22.60
2022-12-19T03:15:37.828Z,25.00
2022-12-19T03:16:37.882Z,22.70
2022-12-19T03:17:37.827Z,21.40
2022-12-19T03:18:37.799Z,22.30
2022-12-19T03:19:37.792Z,22.90
2022-12-19T03:20:37.787Z,26.50
2022-12-19T03:21:37.772Z,22.80
2022-12-19T03:22:37.773Z,22.50
2022-12-19T03:23:37.751Z,23.70
2022-12-19T03:24:37.730Z,22.30
2022-12-19T03:25:37.730Z,24.50
2022-12-19T03:26:37.724Z,22.30
2022-12-19T03:27:37.713Z,24.20
2022-12-19T03:28:37.691Z,23.00
2022-12-19T03:29:37.701Z,23.40
2022-12-19T03:30:37.729Z,22.30
2022-12-19T03:31:37.661Z,24.40
2022-12-19T03:32:37.668Z,22.90
2022-12-19T03:33:37.643Z,24.30
2022-12-19T03:34:37.635Z,25.70
2022-12-19T03:35:37.617Z,22.70
2022-12-19T03:36:37.613Z,22.00
2022-12-19T03:37:37.650Z,22.30
2022-12-19T03:38:37.588Z,26.30
2022-12-19T03:39:37.573Z,24.50
2022-12-19T03:40:37.562Z,23.30
2022-12-19T03:41:37.561Z,26.60
2022-12-19T03:42:37.555Z,22.70
2022-12-19T03:43:37.541Z,23.90
2022-12-19T03:44:37.521Z,24.00
2022-12-19T03:45:37.541Z,21.50
2022-12-19T03:46:37.502Z,22.90
2022-12-19T03:47:37.503Z,24.60
2022-12-19T03:48:37.475Z,26.50
2022-12-19T03:49:37.472Z,25.10
2022-12-19T03:50:37.462Z,19.00
2022-12-19T03:51:37.447Z,22.40
2022-12-19T03:52:37.456Z,24.40
2022-12-19T03:53:37.425Z,25.50
2022-12-19T03:54:37.406Z,23.60
2022-12-19T03:55:37.402Z,25.80
2022-12-19T03:56:37.481Z,26.00
2022-12-19T03:57:37.391Z,24.90
2022-12-19T03:58:37.381Z,25.10
2022-12-19T03:59:37.361Z,23.60
2022-12-19T04:00:37.394Z,25.40
2022-12-19T04:01:37.460Z,27.00
2022-12-19T04:02:37.436Z,23.90
2022-12-19T04:03:37.356Z,23.90
2022-12-19T04:04:37.307Z,25.00
2022-12-19T04:05:37.294Z,24.50
2022-12-19T04:06:37.281Z,24.80
2022-12-19T04:07:37.295Z,25.30
2022-12-19T04:08:37.260Z,23.70
2022-12-19T04:09:37.283Z,24.40
2022-12-19T04:10:37.254Z,23.00
2022-12-19T04:11:37.231Z,25.60
2022-12-19T04:12:37.236Z,26.00
2022-12-19T04:13:43.773Z,24.40
2022-12-19T04:14:37.798Z,26.20
2022-12-19T04:15:37.228Z,24.90
2022-12-19T04:16:37.186Z,26.50
2022-12-19T04:17:37.188Z,25.50
2022-12-19T04:18:37.803Z,28.50
2022-12-19T04:19:42.322Z,27.10
2022-12-19T04:20:37.255Z,24.60
2022-12-19T04:21:37.129Z,23.30
2022-12-19T04:22:37.184Z,24.60
2022-12-19T04:23:37.142Z,25.70
2022-12-19T04:24:37.095Z,23.90
2022-12-19T04:25:37.112Z,22.70
2022-12-19T04:26:37.075Z,25.40
2022-12-19T04:27:37.067Z,23.40
2022-12-19T04:28:37.060Z,23.80
2022-12-19T04:29:37.049Z,26.10
2022-12-19T04:30:37.117Z,23.60
2022-12-19T04:31:37.070Z,24.70
2022-12-19T04:32:37.022Z,24.60
2022-12-19T04:33:36.989Z,24.70
2022-12-19T04:34:42.677Z,25.60
2022-12-19T04:35:36.972Z,26.20
2022-12-19T04:36:37.010Z,23.90
2022-12-19T04:37:36.985Z,24.10
2022-12-19T04:38:36.959Z,25.30
2022-12-19T04:39:36.935Z,24.40
2022-12-19T04:40:41.209Z,25.00
2022-12-19T04:41:36.922Z,24.10
2022-12-19T04:42:36.913Z,25.00
2022-12-19T04:43:36.898Z,26.50
2022-12-19T04:44:36.871Z,24.90
2022-12-19T04:45:36.893Z,27.60
2022-12-19T04:46:36.917Z,24.60
2022-12-19T04:47:36.869Z,24.10
2022-12-19T04:48:36.837Z,23.60
2022-12-19T04:49:36.833Z,25.30
2022-12-19T04:50:36.806Z,23.50
2022-12-19T04:51:36.796Z,26.30
2022-12-19T04:52:36.832Z,25.20
2022-12-19T04:53:36.793Z,25.00
2022-12-19T04:54:36.764Z,28.80
2022-12-19T04:55:36.794Z,25.40
2022-12-19T04:56:36.755Z,23.10
2022-12-19T04:57:36.769Z,27.80
2022-12-19T04:58:36.718Z,26.60
2022-12-19T04:59:36.706Z,29.20
2022-12-19T05:00:36.719Z,27.50
2022-12-19T05:01:36.855Z,24.30
2022-12-19T05:02:36.831Z,28.00
2022-12-19T05:03:36.828Z,29.00
2022-12-19T05:04:36.672Z,25.40
2022-12-19T05:05:36.645Z,25.90
2022-12-19T05:06:36.633Z,24.90
2022-12-19T05:07:36.639Z,26.80
2022-12-19T05:08:36.634Z,25.60
2022-12-19T05:09:36.600Z,24.10
2022-12-19T05:10:36.593Z,27.50
2022-12-19T05:11:36.602Z,29.20
2022-12-19T05:12:36.583Z,28.20
2022-12-19T05:13:36.554Z,30.30
2022-12-19T05:14:36.548Z,28.10
2022-12-19T05:15:36.553Z,26.50
2022-12-19T05:16:36.541Z,29.60
2022-12-19T05:17:36.526Z,27.80
2022-12-19T05:18:36.503Z,29.60
2022-12-19T05:19:36.493Z,27.60
2022-12-19T05:20:36.481Z,28.20
2022-12-19T05:21:36.472Z,30.90
2022-12-19T05:22:36.494Z,29.00
2022-12-19T05:23:36.486Z,27.30
2022-12-19T05:24:36.435Z,28.20
2022-12-19T05:25:36.438Z,30.10
2022-12-19T05:26:36.406Z,31.50
2022-12-19T05:27:36.394Z,26.00
2022-12-19T05:28:36.441Z,24.20
2022-12-19T05:29:36.375Z,28.60
2022-12-19T05:30:36.361Z,26.90
2022-12-19T05:31:36.400Z,24.50
2022-12-19T05:32:36.338Z,26.80
2022-12-19T05:33:36.378Z,29.40
2022-12-19T05:34:36.326Z,28.50
2022-12-19T05:35:36.320Z,28.10
2022-12-19T05:36:36.306Z,30.00
2022-12-19T05:37:36.289Z,30.40
2022-12-19T05:38:36.331Z,28.20
2022-12-19T05:39:36.268Z,27.10
2022-12-19T05:40:36.248Z,29.80
2022-12-19T05:41:36.235Z,30.00
2022-12-19T05:42:36.281Z,28.60
2022-12-19T05:43:36.247Z,27.20
2022-12-19T05:44:36.240Z,29.80
2022-12-19T05:45:36.219Z,26.40
2022-12-19T05:46:36.278Z,25.70
2022-12-19T05:47:37.967Z,29.40
2022-12-19T05:48:36.186Z,24.50
2022-12-19T05:49:36.155Z,27.00
2022-12-19T05:50:36.168Z,25.00
2022-12-19T05:51:36.156Z,28.50
2022-12-19T05:52:36.122Z,25.50
2022-12-19T05:53:36.143Z,29.10
2022-12-19T05:54:36.123Z,27.60
2022-12-19T05:55:36.093Z,32.30
2022-12-19T05:56:36.076Z,28.50
2022-12-19T05:57:36.079Z,28.60
2022-12-19T05:58:36.081Z,28.90
2022-12-19T05:59:36.059Z,27.40
2022-12-19T06:00:36.035Z,27.20
2022-12-19T06:01:36.077Z,28.90
2022-12-19T06:02:36.222Z,24.70
2022-12-19T06:03:36.067Z,27.20
2022-12-19T06:04:36.011Z,27.80
2022-12-19T06:05:36.008Z,27.00
2022-12-19T06:06:35.973Z,27.20
2022-12-19T06:07:35.964Z,29.50
2022-12-19T06:08:35.989Z,25.70
2022-12-19T06:09:35.937Z,27.90
2022-12-19T06:10:35.939Z,27.00
2022-12-19T06:11:35.933Z,22.80
2022-12-19T06:12:35.922Z,27.60
2022-12-19T06:13:35.997Z,26.30
2022-12-19T06:14:35.977Z,25.40
2022-12-19T06:15:35.901Z,24.40
2022-12-19T06:16:35.943Z,26.70
2022-12-19T06:17:35.904Z,25.90
2022-12-19T06:18:40.457Z,25.10
2022-12-19T06:19:35.838Z,22.40
2022-12-19T06:20:35.842Z,23.10
2022-12-19T06:21:39.745Z,25.90
2022-12-19T06:22:35.810Z,24.70
2022-12-19T06:23:35.805Z,23.20
2022-12-19T06:24:35.790Z,27.50
2022-12-19T06:25:35.761Z,24.60
2022-12-19T06:26:35.752Z,26.60
2022-12-19T06:27:35.754Z,27.40
2022-12-19T06:28:35.747Z,23.50
2022-12-19T06:29:35.711Z,26.30
2022-12-19T06:30:35.710Z,25.80
2022-12-19T06:31:35.707Z,22.70
2022-12-19T06:32:38.106Z,24.50
2022-12-19T06:33:35.691Z,26.50
2022-12-19T06:35:35.676Z,26.90
2022-12-19T06:36:35.645Z,22.40
2022-12-19T06:37:38.949Z,25.70
2022-12-19T06:38:35.623Z,25.60
2022-12-19T06:39:35.646Z,27.90
2022-12-19T06:40:35.600Z,26.90
2022-12-19T06:41:35.609Z,23.70
2022-12-19T06:42:35.570Z,25.70
2022-12-19T06:43:35.600Z,23.90
2022-12-19T06:44:35.563Z,23.60
2022-12-19T06:45:35.575Z,23.70
2022-12-19T06:46:35.527Z,25.70
2022-12-19T06:47:35.531Z,24.80
2022-12-19T06:48:35.543Z,24.90
2022-12-19T06:49:35.520Z,27.40
2022-12-19T06:50:35.523Z,26.20
2022-12-19T06:51:35.466Z,26.60
2022-12-19T06:52:35.465Z,26.20
2022-12-19T06:53:35.512Z,25.00
2022-12-19T06:54:35.457Z,28.70
2022-12-19T06:55:35.446Z,26.50
2022-12-19T06:56:35.515Z,24.90
2022-12-19T06:57:35.594Z,24.10
2022-12-19T06:58:35.436Z,24.20
2022-12-19T06:59:35.396Z,24.40
2022-12-19T07:00:35.423Z,21.90
2022-12-19T07:01:35.536Z,22.90
2022-12-19T07:02:35.457Z,23.00
2022-12-19T07:03:35.367Z,23.50
2022-12-19T07:04:35.347Z,23.80
2022-12-19T07:05:35.324Z,24.30
2022-12-19T07:06:35.333Z,22.10
2022-12-19T07:07:35.545Z,23.50
2022-12-19T07:08:35.347Z,25.90
2022-12-19T07:09:35.281Z,21.30
2022-12-19T07:10:35.393Z,23.30
2022-12-19T07:11:35.256Z,22.90
2022-12-19T07:12:35.248Z,24.50
2022-12-19T07:13:35.275Z,24.30
2022-12-19T07:14:35.249Z,24.10
2022-12-19T07:15:35.206Z,24.50
2022-12-19T07:16:35.263Z,23.20
2022-12-19T07:17:35.191Z,24.50
2022-12-19T07:18:35.197Z,24.40
2022-12-19T07:19:35.159Z,24.90
2022-12-19T07:20:35.160Z,24.20
2022-12-19T07:21:35.155Z,26.20
2022-12-19T07:22:35.175Z,23.70
2022-12-19T07:23:35.189Z,23.20
2022-12-19T07:24:35.105Z,25.80
2022-12-19T07:25:35.120Z,23.50
2022-12-19T07:26:35.117Z,23.20
2022-12-19T07:27:36.035Z,25.40
2022-12-19T07:28:35.103Z,26.00
2022-12-19T07:29:35.098Z,25.80
2022-12-19T07:30:35.050Z,25.50
2022-12-19T07:31:35.105Z,24.60
2022-12-19T07:32:35.036Z,26.50
2022-12-19T07:33:35.050Z,26.20
2022-12-19T07:34:35.039Z,27.60
2022-12-19T07:35:35.011Z,24.40
2022-12-19T07:36:34.978Z,29.30
2022-12-19T07:37:35.005Z,27.10
2022-12-19T07:38:34.975Z,28.80
2022-12-19T07:39:34.946Z,25.30
2022-12-19T07:40:34.949Z,33.90
2022-12-19T07:41:34.934Z,28.30
2022-12-19T07:42:34.913Z,33.20
2022-12-19T07:43:35.003Z,34.00
2022-12-19T07:44:34.892Z,25.70
2022-12-19T07:45:35.007Z,28.10
2022-12-19T07:46:34.952Z,30.40
2022-12-19T07:47:34.911Z,26.20
2022-12-19T07:48:35.095Z,26.10
2022-12-19T07:49:35.009Z,27.20
2022-12-19T07:50:35.007Z,28.40
2022-12-19T07:51:34.835Z,28.50
2022-12-19T07:52:34.880Z,25.40
2022-12-19T07:53:34.883Z,30.60
2022-12-19T07:54:34.820Z,24.80
2022-12-19T07:55:34.813Z,29.60
2022-12-19T07:56:34.778Z,30.00
2022-12-19T07:57:34.782Z,28.90
2022-12-19T07:58:34.806Z,30.30
2022-12-19T07:59:38.930Z,34.50
2022-12-19T08:00:34.712Z,31.40
2022-12-19T08:01:34.887Z,28.90
2022-12-19T08:02:34.777Z,29.70
2022-12-19T08:03:34.696Z,31.30
2022-12-19T08:04:34.676Z,27.10
2022-12-19T08:05:34.707Z,31.70
2022-12-19T08:06:40.632Z,27.90
2022-12-19T08:07:34.692Z,28.90
2022-12-19T08:08:34.666Z,29.20
2022-12-19T08:09:34.614Z,30.50
2022-12-19T08:10:34.612Z,34.10
2022-12-19T08:11:34.645Z,28.00
2022-12-19T08:12:34.613Z,35.10
2022-12-19T08:13:38.877Z,32.40
2022-12-19T08:14:34.592Z,33.50
2022-12-19T08:15:34.554Z,32.30
2022-12-19T08:16:44.181Z,33.30
2022-12-19T08:17:34.651Z,31.40
2022-12-19T08:18:34.550Z,32.80
2022-12-19T08:19:34.516Z,31.10
2022-12-19T08:20:34.494Z,32.60
2022-12-19T08:21:34.490Z,30.80
2022-12-19T08:22:34.505Z,30.90
2022-12-19T08:23:34.486Z,33.70
2022-12-19T08:24:34.457Z,30.20
2022-12-19T08:25:34.454Z,33.80
2022-12-19T08:26:40.604Z,29.80
2022-12-19T08:27:34.428Z,36.30
2022-12-19T08:28:34.434Z,36.20
2022-12-19T08:29:34.391Z,33.60
2022-12-19T08:30:34.438Z,37.20
2022-12-19T08:31:34.381Z,33.90
2022-12-19T08:32:34.376Z,33.50
2022-12-19T08:33:34.436Z,34.80
2022-12-19T08:34:34.365Z,34.10
2022-12-19T08:35:34.324Z,33.70
2022-12-19T08:36:34.322Z,38.00
2022-12-19T08:37:34.310Z,35.10
2022-12-19T08:38:34.305Z,36.60
2022-12-19T08:39:34.302Z,35.50
2022-12-19T08:40:34.291Z,34.90
2022-12-19T08:41:34.291Z,30.30
2022-12-19T08:42:34.293Z,41.70
2022-12-19T08:43:34.325Z,34.80
2022-12-19T08:44:34.264Z,36.00
2022-12-19T08:45:34.249Z,36.00
2022-12-19T08:46:34.399Z,36.30
2022-12-19T08:47:34.343Z,30.80
2022-12-19T08:48:34.242Z,36.80
2022-12-19T08:49:34.203Z,36.70
2022-12-19T08:50:34.194Z,33.80
2022-12-19T08:51:34.153Z,34.30
2022-12-19T08:52:34.192Z,38.40
2022-12-19T08:53:34.164Z,44.50
2022-12-19T08:54:34.171Z,39.50
2022-12-19T08:55:34.212Z,37.90
2022-12-19T08:56:34.109Z,40.90
2022-12-19T08:57:34.092Z,38.90
2022-12-19T08:58:34.101Z,43.70
2022-12-19T08:59:34.136Z,37.60
2022-12-19T09:00:34.077Z,35.50
2022-12-19T09:01:34.230Z,40.30
2022-12-19T09:02:34.229Z,36.00
2022-12-19T09:03:36.744Z,31.50
2022-12-19T09:05:58.580Z,36.40
2022-12-19T09:06:15.445Z,38.10
2022-12-19T09:06:34.072Z,32.60
2022-12-19T09:07:33.985Z,37.20
2022-12-19T09:08:34.015Z,32.10
2022-12-19T09:09:34.065Z,36.70
2022-12-19T09:10:33.993Z,40.10
2022-12-19T09:11:35.916Z,37.70
2022-12-19T09:12:33.970Z,34.00
2022-12-19T09:13:34.052Z,38.70
2022-12-19T09:14:34.225Z,34.40
2022-12-19T09:15:33.920Z,36.20
2022-12-19T09:16:34.062Z,43.10
2022-12-19T09:17:34.097Z,35.80
2022-12-19T09:18:34.012Z,38.10
2022-12-19T09:19:33.899Z,41.10
2022-12-19T09:20:34.203Z,32.70
2022-12-19T09:21:33.862Z,39.30
2022-12-19T09:22:33.870Z,36.30
2022-12-19T09:23:33.807Z,38.00
2022-12-19T09:24:33.935Z,37.60
2022-12-19T09:25:33.860Z,34.80
2022-12-19T09:26:34.038Z,32.50
2022-12-19T09:27:47.687Z,31.10
2022-12-19T09:28:33.769Z,33.80
2022-12-19T09:29:35.770Z,29.60
2022-12-19T09:30:33.826Z,35.90
2022-12-19T09:31:33.772Z,37.30
2022-12-19T09:32:33.753Z,34.50
2022-12-19T09:33:37.980Z,38.10
2022-12-19T09:34:38.512Z,35.90
2022-12-19T09:35:33.670Z,37.30
2022-12-19T09:36:33.682Z,32.70
2022-12-19T09:37:33.651Z,37.00
2022-12-19T09:38:33.648Z,39.60
2022-12-19T09:39:33.661Z,44.00
2022-12-19T09:40:33.709Z,39.70
2022-12-19T09:41:33.635Z,32.70
2022-12-19T09:42:35.143Z,32.10
2022-12-19T09:43:39.584Z,35.30
2022-12-19T09:44:33.672Z,35.70
2022-12-19T09:45:33.596Z,38.70
2022-12-19T09:46:33.603Z,31.70
2022-12-19T09:47:33.552Z,36.10
2022-12-19T09:48:33.588Z,30.70
2022-12-19T09:49:33.549Z,35.90
2022-12-19T09:50:33.521Z,34.40
2022-12-19T09:51:33.574Z,31.20
2022-12-19T09:52:33.487Z,34.90
2022-12-19T09:53:33.481Z,35.70
2022-12-19T09:54:33.515Z,37.10
2022-12-19T09:55:33.457Z,35.30
2022-12-19T09:56:34.105Z,35.00
2022-12-19T09:57:33.468Z,33.40
2022-12-19T09:58:33.480Z,30.70
2022-12-19T09:59:41.382Z,35.50
2022-12-19T10:00:33.425Z,39.40
2022-12-19T10:01:33.548Z,34.90
2022-12-19T10:02:33.635Z,31.40
2022-12-19T10:03:39.246Z,33.10
2022-12-19T10:04:33.404Z,35.80
2022-12-19T10:06:43.302Z,42.60
2022-12-19T10:07:53.009Z,32.70
2022-12-19T10:08:09.886Z,28.50
2022-12-19T10:08:33.330Z,35.30
2022-12-19T10:11:02.371Z,40.90
2022-12-19T10:12:51.245Z,30.30
2022-12-19T10:12:59.848Z,33.90
2022-12-19T10:14:02.768Z,33.40
2022-12-19T10:14:56.210Z,38.00
2022-12-19T10:16:00.185Z,34.60
2022-12-19T10:17:22.570Z,32.10
2022-12-19T10:17:56.161Z,29.80
2022-12-19T10:18:56.975Z,35.00
2022-12-19T10:19:56.147Z,32.90
2022-12-19T10:20:56.131Z,34.00
2022-12-19T10:22:56.100Z,37.40
2022-12-19T10:23:56.081Z,28.40
2022-12-19T10:25:08.043Z,41.30
2022-12-19T10:25:56.086Z,30.90
2022-12-19T10:26:56.062Z,37.10
2022-12-19T10:27:58.876Z,33.80
2022-12-19T10:28:56.023Z,38.30
2022-12-19T10:29:56.020Z,27.60
2022-12-19T10:30:56.071Z,35.00
2022-12-19T10:31:56.050Z,31.30
2022-12-19T10:32:56.203Z,37.30
2022-12-19T10:33:55.975Z,29.00
2022-12-19T10:34:59.637Z,31.70
2022-12-19T10:35:55.979Z,32.90
2022-12-19T10:37:55.940Z,31.40
2022-12-19T10:38:55.942Z,33.40
2022-12-19T10:39:55.955Z,31.50
2022-12-19T10:40:55.905Z,31.50
2022-12-19T10:41:55.892Z,33.00
2022-12-19T10:42:55.873Z,29.70
2022-12-19T10:43:55.872Z,33.80
2022-12-19T10:44:55.851Z,35.40
2022-12-19T10:45:55.860Z,29.50
2022-12-19T10:46:55.875Z,38.30
2022-12-19T10:47:55.812Z,33.70
2022-12-19T10:48:55.833Z,32.80
2022-12-19T10:49:55.809Z,29.80
2022-12-19T10:50:55.808Z,32.60
2022-12-19T10:51:55.853Z,42.50
2022-12-19T10:52:55.792Z,26.40
2022-12-19T10:53:55.764Z,37.00
2022-12-19T10:54:55.741Z,38.70
2022-12-19T10:55:55.815Z,47.00
2022-12-19T10:56:55.735Z,36.70
2022-12-19T10:57:55.746Z,46.20
2022-12-19T10:58:55.702Z,35.40
2022-12-19T10:59:55.739Z,30.30
2022-12-19T11:00:55.708Z,37.50
2022-12-19T11:02:00.691Z,42.00
2022-12-19T11:02:55.870Z,34.90
2022-12-19T11:03:55.691Z,35.60
2022-12-19T11:04:55.746Z,47.20
2022-12-19T11:05:58.037Z,42.90
2022-12-19T11:06:55.639Z,33.60
2022-12-19T11:07:55.611Z,47.00
2022-12-19T11:08:55.579Z,28.50
2022-12-19T11:10:46.963Z,39.20
2022-12-19T11:15:45.433Z,36.00
2022-12-19T11:29:27.630Z,57.60
2022-12-19T11:31:51.472Z,37.80
2022-12-19T11:32:49.959Z,66.60
2022-12-19T11:33:24.504Z,67.60
2022-12-19T11:34:24.428Z,68.10
2022-12-19T11:35:25.241Z,57.40
2022-12-19T11:36:24.404Z,75.70
2022-12-19T11:37:24.379Z,52.80
2022-12-19T11:38:24.377Z,45.40
2022-12-19T11:39:24.436Z,63.90
2022-12-19T11:40:24.351Z,59.30
2022-12-19T11:41:24.337Z,90.00
2022-12-19T11:42:24.331Z,55.60
2022-12-19T11:44:24.323Z,66.90
2022-12-19T11:45:24.291Z,55.70
2022-12-19T11:46:24.284Z,58.20
2022-12-19T11:47:24.273Z,54.60
2022-12-19T11:48:24.310Z,53.40
2022-12-19T11:49:24.274Z,82.60
2022-12-19T11:50:24.234Z,50.50
2022-12-19T11:51:24.219Z,77.50
2022-12-19T11:53:02.134Z,75.30
2022-12-19T11:53:24.220Z,61.40
2022-12-19T11:54:24.222Z,47.40
2022-12-19T11:55:24.185Z,66.60
2022-12-19T11:56:24.166Z,67.10
2022-12-19T11:57:24.157Z,69.60
2022-12-19T11:58:24.150Z,52.60
2022-12-19T11:59:24.162Z,46.10
2022-12-19T12:00:24.142Z,46.80
2022-12-19T12:01:24.176Z,70.20
2022-12-19T12:02:24.104Z,98.70
2022-12-19T12:03:24.169Z,89.00
2022-12-19T12:04:24.161Z,48.10
2022-12-19T12:05:24.077Z,40.60
2022-12-19T12:06:29.564Z,41.40
2022-12-19T12:07:44.457Z,66.10
2022-12-19T12:12:01.155Z,108.30
2022-12-19T12:31:13.894Z,61.20
2022-12-19T12:35:50.918Z,79.40
2022-12-19T12:38:25.010Z,57.40
2022-12-19T12:39:03.828Z,50.40
2022-12-19T12:40:03.737Z,30.00
2022-12-19T12:41:03.760Z,45.20
2022-12-19T12:42:03.719Z,93.50
2022-12-19T12:43:03.700Z,69.70
2022-12-19T12:44:03.709Z,27.20
2022-12-19T12:45:03.717Z,32.20
2022-12-19T12:46:03.771Z,58.40
2022-12-19T12:47:03.690Z,85.70
2022-12-19T12:48:03.650Z,67.70
2022-12-19T12:49:03.643Z,50.50
2022-12-19T12:50:03.667Z,36.60
2022-12-19T12:51:03.640Z,55.30
2022-12-19T12:52:03.620Z,85.50
2022-12-19T12:53:03.602Z,31.30
2022-12-19T12:54:03.614Z,44.40
2022-12-19T12:55:03.580Z,45.00
2022-12-19T12:56:03.865Z,47.80
2022-12-19T12:57:03.558Z,38.60
2022-12-19T12:58:03.533Z,32.90
2022-12-19T12:59:03.570Z,39.50
2022-12-19T13:00:03.537Z,103.20
2022-12-19T13:01:03.552Z,34.60
2022-12-19T13:02:03.731Z,49.80
2022-12-19T13:03:03.789Z,31.50
2022-12-19T13:04:03.485Z,55.50
2022-12-19T13:05:03.489Z,48.20
2022-12-19T13:06:03.450Z,98.50
2022-12-19T13:07:03.457Z,27.00
2022-12-19T13:08:03.449Z,45.40
2022-12-19T13:09:03.429Z,42.60
2022-12-19T13:10:03.420Z,34.60
2022-12-19T13:11:03.396Z,39.40
2022-12-19T13:12:03.402Z,89.10
2022-12-19T13:13:04.344Z,41.90
2022-12-19T13:14:03.435Z,35.50
2022-12-19T13:15:03.448Z,41.40
2022-12-19T13:16:03.355Z,53.10
2022-12-19T13:17:03.471Z,67.70
2022-12-19T13:18:03.329Z,35.20
2022-12-19T13:19:03.313Z,44.40
2022-12-19T13:20:03.306Z,69.10
2022-12-19T13:21:03.282Z,49.70
2022-12-19T13:22:03.282Z,33.90
2022-12-19T13:23:03.280Z,32.90
2022-12-19T13:24:03.249Z,33.80
2022-12-19T13:25:03.264Z,45.90
2022-12-19T13:26:03.238Z,31.80
2022-12-19T13:27:03.211Z,41.90
2022-12-19T13:28:03.211Z,45.40
2022-12-19T13:29:03.208Z,42.70
2022-12-19T13:30:03.198Z,34.60
2022-12-19T13:31:20.854Z,37.70
2022-12-19T13:32:03.290Z,39.20
2022-12-19T13:33:03.174Z,41.90
2022-12-19T13:34:03.158Z,89.00
2022-12-19T13:35:49.118Z,76.60
2022-12-19T13:40:07.487Z,36.30
2022-12-19T13:40:20.374Z,33.00
2022-12-19T13:41:01.849Z,38.10
2022-12-19T13:42:01.824Z,44.40
2022-12-19T13:43:10.794Z,44.80
2022-12-19T13:44:01.803Z,51.70
2022-12-19T13:45:01.816Z,53.30
2022-12-19T13:46:01.803Z,44.90